sensor_id;sensor_type;location;lat;lon;timestamp;P1;durP1;ratioP1;P2;durP2;ratioP2
50066;SDS011;35952;52.524;13.340;2023-07-13T00:01:16;4.77;;;3.87;;
50066;SDS011;35952;52.524;13.340;2023-07-13T00:03:42;4.93;;;4.03;;
50066;SDS011;35952;52.524;13.340;2023-07-13T00:06:08;5.47;;;4.47;;
50066;SDS011;35952;52.524;13.340;2023-07-13T00:08:34;5.53;;;4.27;;
50066;SDS011;35952;52.524;13.340;2023-07-13T00:11:00;4.50;;;4.10;;
50066;SDS011;35952;52.524;13.340;2023-07-13T00:13:27;4.37;;;4.17;;
50066;SDS011;35952;52.524;13.340;2023-07-13T00:15:54;4.70;;;4.23;;
50066;SDS011;35952;52.524;13.340;2023-07-13T00:18:20;4.60;;;4.20;;
50066;SDS011;35952;52.524;13.340;2023-07-13T00:20:46;4.43;;;4.00;;
50066;SDS011;35952;52.524;13.340;2023-07-13T00:23:13;6.73;;;4.97;;
50066;SDS011;35952;52.524;13.340;2023-07-13T00:25:38;9.80;;;5.23;;
50066;SDS011;35952;52.524;13.340;2023-07-13T00:28:04;5.43;;;4.87;;
50066;SDS011;35952;52.524;13.340;2023-07-13T00:30:30;4.67;;;4.27;;
50066;SDS011;35952;52.524;13.340;2023-07-13T00:32:55;4.57;;;4.27;;
50066;SDS011;35952;52.524;13.340;2023-07-13T00:35:21;5.13;;;4.50;;
50066;SDS011;35952;52.524;13.340;2023-07-13T00:37:46;9.13;;;4.60;;
50066;SDS011;35952;52.524;13.340;2023-07-13T00:40:12;4.67;;;4.37;;
50066;SDS011;35952;52.524;13.340;2023-07-13T00:42:39;4.63;;;4.23;;
50066;SDS011;35952;52.524;13.340;2023-07-13T00:47:37;5.63;;;4.20;;
50066;SDS011;35952;52.524;13.340;2023-07-13T00:50:03;8.27;;;4.63;;
50066;SDS011;35952;52.524;13.340;2023-07-13T00:52:33;6.30;;;5.30;;
50066;SDS011;35952;52.524;13.340;2023-07-13T00:55:01;5.73;;;4.90;;
50066;SDS011;35952;52.524;13.340;2023-07-13T00:57:27;4.90;;;4.50;;
50066;SDS011;35952;52.524;13.340;2023-07-13T00:59:55;5.50;;;5.00;;
50066;SDS011;35952;52.524;13.340;2023-07-13T01:02:23;7.30;;;5.30;;
50066;SDS011;35952;52.524;13.340;2023-07-13T01:04:50;7.10;;;5.50;;
50066;SDS011;35952;52.524;13.340;2023-07-13T01:07:15;6.07;;;5.47;;
50066;SDS011;35952;52.524;13.340;2023-07-13T01:09:41;5.53;;;5.13;;
50066;SDS011;35952;52.524;13.340;2023-07-13T01:12:07;6.60;;;5.27;;
50066;SDS011;35952;52.524;13.340;2023-07-13T01:14:33;6.17;;;4.97;;
50066;SDS011;35952;52.524;13.340;2023-07-13T01:16:58;5.50;;;5.00;;
50066;SDS011;35952;52.524;13.340;2023-07-13T01:19:38;5.20;;;4.40;;
50066;SDS011;35952;52.524;13.340;2023-07-13T01:22:07;6.00;;;4.80;;
50066;SDS011;35952;52.524;13.340;2023-07-13T01:24:36;5.50;;;5.00;;
50066;SDS011;35952;52.524;13.340;2023-07-13T01:27:04;5.10;;;4.73;;
50066;SDS011;35952;52.524;13.340;2023-07-13T01:29:31;7.03;;;4.70;;
50066;SDS011;35952;52.524;13.340;2023-07-13T01:31:58;4.83;;;4.43;;
50066;SDS011;35952;52.524;13.340;2023-07-13T01:34:26;5.10;;;4.60;;
50066;SDS011;35952;52.524;13.340;2023-07-13T01:36:53;5.67;;;5.00;;
50066;SDS011;35952;52.524;13.340;2023-07-13T01:39:19;5.07;;;4.63;;
50066;SDS011;35952;52.524;13.340;2023-07-13T01:41:48;6.20;;;4.20;;
50066;SDS011;35952;52.524;13.340;2023-07-13T01:44:14;7.40;;;5.07;;
50066;SDS011;35952;52.524;13.340;2023-07-13T01:46:39;4.43;;;4.03;;
50066;SDS011;35952;52.524;13.340;2023-07-13T01:49:05;4.87;;;4.33;;
50066;SDS011;35952;52.524;13.340;2023-07-13T01:51:31;4.90;;;4.37;;
50066;SDS011;35952;52.524;13.340;2023-07-13T01:53:56;5.70;;;5.00;;
50066;SDS011;35952;52.524;13.340;2023-07-13T01:56:22;5.20;;;4.70;;
50066;SDS011;35952;52.524;13.340;2023-07-13T01:58:48;6.10;;;5.50;;
50066;SDS011;35952;52.524;13.340;2023-07-13T02:01:14;5.97;;;5.30;;
50066;SDS011;35952;52.524;13.340;2023-07-13T02:03:40;4.57;;;4.17;;
50066;SDS011;35952;52.524;13.340;2023-07-13T02:06:05;4.97;;;4.57;;
50066;SDS011;35952;52.524;13.340;2023-07-13T02:08:32;5.20;;;4.70;;
50066;SDS011;35952;52.524;13.340;2023-07-13T02:10:57;4.90;;;4.50;;
50066;SDS011;35952;52.524;13.340;2023-07-13T02:13:23;7.30;;;5.20;;
50066;SDS011;35952;52.524;13.340;2023-07-13T02:15:51;4.37;;;4.03;;
50066;SDS011;35952;52.524;13.340;2023-07-13T02:18:17;5.33;;;4.83;;
50066;SDS011;35952;52.524;13.340;2023-07-13T02:20:43;4.73;;;4.33;;
50066;SDS011;35952;52.524;13.340;2023-07-13T02:23:08;4.70;;;4.33;;
50066;SDS011;35952;52.524;13.340;2023-07-13T02:25:34;4.83;;;4.33;;
50066;SDS011;35952;52.524;13.340;2023-07-13T02:27:59;9.40;;;5.00;;
50066;SDS011;35952;52.524;13.340;2023-07-13T02:30:25;5.90;;;4.93;;
50066;SDS011;35952;52.524;13.340;2023-07-13T02:32:51;5.30;;;4.80;;
50066;SDS011;35952;52.524;13.340;2023-07-13T02:35:16;6.30;;;4.50;;
50066;SDS011;35952;52.524;13.340;2023-07-13T02:37:42;5.30;;;4.90;;
50066;SDS011;35952;52.524;13.340;2023-07-13T02:40:08;5.10;;;4.60;;
50066;SDS011;35952;52.524;13.340;2023-07-13T02:42:34;5.60;;;4.57;;
50066;SDS011;35952;52.524;13.340;2023-07-13T02:45:00;4.80;;;3.67;;
50066;SDS011;35952;52.524;13.340;2023-07-13T02:47:25;4.50;;;4.20;;
50066;SDS011;35952;52.524;13.340;2023-07-13T02:49:51;9.87;;;4.23;;
50066;SDS011;35952;52.524;13.340;2023-07-13T02:52:17;4.33;;;4.03;;
50066;SDS011;35952;52.524;13.340;2023-07-13T02:54:43;5.20;;;4.40;;
50066;SDS011;35952;52.524;13.340;2023-07-13T02:57:08;4.57;;;4.17;;
50066;SDS011;35952;52.524;13.340;2023-07-13T02:59:34;9.47;;;4.53;;
50066;SDS011;35952;52.524;13.340;2023-07-13T03:02:00;5.93;;;4.80;;
50066;SDS011;35952;52.524;13.340;2023-07-13T03:04:27;5.03;;;4.50;;
50066;SDS011;35952;52.524;13.340;2023-07-13T03:06:53;4.57;;;4.17;;
50066;SDS011;35952;52.524;13.340;2023-07-13T03:09:22;5.40;;;4.63;;
50066;SDS011;35952;52.524;13.340;2023-07-13T03:11:48;4.27;;;3.87;;
50066;SDS011;35952;52.524;13.340;2023-07-13T03:14:13;4.63;;;4.07;;
50066;SDS011;35952;52.524;13.340;2023-07-13T03:16:39;3.90;;;3.57;;
50066;SDS011;35952;52.524;13.340;2023-07-13T03:19:05;5.90;;;3.70;;
50066;SDS011;35952;52.524;13.340;2023-07-13T03:21:30;4.20;;;3.80;;
50066;SDS011;35952;52.524;13.340;2023-07-13T03:23:56;4.03;;;3.73;;
50066;SDS011;35952;52.524;13.340;2023-07-13T03:26:21;5.10;;;3.80;;
50066;SDS011;35952;52.524;13.340;2023-07-13T03:28:47;4.67;;;3.83;;
50066;SDS011;35952;52.524;13.340;2023-07-13T03:31:15;10.27;;;4.17;;
50066;SDS011;35952;52.524;13.340;2023-07-13T03:33:43;3.90;;;3.60;;
50066;SDS011;35952;52.524;13.340;2023-07-13T03:36:12;4.10;;;3.67;;
50066;SDS011;35952;52.524;13.340;2023-07-13T03:38:43;4.80;;;4.40;;
50066;SDS011;35952;52.524;13.340;2023-07-13T03:41:11;4.10;;;3.80;;
50066;SDS011;35952;52.524;13.340;2023-07-13T03:43:36;5.27;;;4.60;;
50066;SDS011;35952;52.524;13.340;2023-07-13T03:46:02;5.73;;;4.70;;
50066;SDS011;35952;52.524;13.340;2023-07-13T03:48:28;5.13;;;4.73;;
50066;SDS011;35952;52.524;13.340;2023-07-13T03:50:53;6.93;;;4.90;;
50066;SDS011;35952;52.524;13.340;2023-07-13T03:53:19;8.33;;;5.00;;
50066;SDS011;35952;52.524;13.340;2023-07-13T03:55:44;5.60;;;5.20;;
50066;SDS011;35952;52.524;13.340;2023-07-13T03:58:26;5.63;;;5.23;;
50066;SDS011;35952;52.524;13.340;2023-07-13T04:01:00;5.43;;;4.87;;
50066;SDS011;35952;52.524;13.340;2023-07-13T04:03:28;6.10;;;5.50;;
50066;SDS011;35952;52.524;13.340;2023-07-13T04:05:55;5.73;;;5.23;;
50066;SDS011;35952;52.524;13.340;2023-07-13T04:08:28;5.20;;;4.70;;
50066;SDS011;35952;52.524;13.340;2023-07-13T04:11:01;6.37;;;5.73;;
50066;SDS011;35952;52.524;13.340;2023-07-13T04:13:27;6.53;;;5.97;;
50066;SDS011;35952;52.524;13.340;2023-07-13T04:15:53;5.40;;;5.00;;
50066;SDS011;35952;52.524;13.340;2023-07-13T04:18:19;8.87;;;6.00;;
50066;SDS011;35952;52.524;13.340;2023-07-13T04:20:48;6.50;;;5.20;;
50066;SDS011;35952;52.524;13.340;2023-07-13T04:23:15;7.67;;;6.40;;
50066;SDS011;35952;52.524;13.340;2023-07-13T04:25:44;5.27;;;4.60;;
50066;SDS011;35952;52.524;13.340;2023-07-13T04:28:11;8.47;;;6.20;;
50066;SDS011;35952;52.524;13.340;2023-07-13T04:30:37;6.07;;;5.60;;
50066;SDS011;35952;52.524;13.340;2023-07-13T04:33:02;6.07;;;5.47;;
50066;SDS011;35952;52.524;13.340;2023-07-13T04:35:29;5.70;;;5.30;;
50066;SDS011;35952;52.524;13.340;2023-07-13T04:37:55;7.33;;;6.73;;
50066;SDS011;35952;52.524;13.340;2023-07-13T04:40:21;8.03;;;6.33;;
50066;SDS011;35952;52.524;13.340;2023-07-13T04:42:46;7.87;;;6.70;;
50066;SDS011;35952;52.524;13.340;2023-07-13T04:45:12;6.27;;;5.67;;
50066;SDS011;35952;52.524;13.340;2023-07-13T04:47:39;5.90;;;5.37;;
50066;SDS011;35952;52.524;13.340;2023-07-13T04:50:06;10.33;;;5.73;;
50066;SDS011;35952;52.524;13.340;2023-07-13T04:52:32;8.20;;;5.33;;
50066;SDS011;35952;52.524;13.340;2023-07-13T04:54:58;5.33;;;4.43;;
50066;SDS011;35952;52.524;13.340;2023-07-13T04:57:24;5.70;;;5.07;;
50066;SDS011;35952;52.524;13.340;2023-07-13T04:59:50;5.80;;;4.50;;
50066;SDS011;35952;52.524;13.340;2023-07-13T05:02:15;5.87;;;5.27;;
50066;SDS011;35952;52.524;13.340;2023-07-13T05:04:41;5.87;;;5.27;;
50066;SDS011;35952;52.524;13.340;2023-07-13T05:07:06;9.67;;;6.37;;
50066;SDS011;35952;52.524;13.340;2023-07-13T05:09:32;6.07;;;5.47;;
50066;SDS011;35952;52.524;13.340;2023-07-13T05:11:57;4.97;;;4.57;;
50066;SDS011;35952;52.524;13.340;2023-07-13T05:14:26;6.60;;;6.00;;
50066;SDS011;35952;52.524;13.340;2023-07-13T05:16:51;6.20;;;5.63;;
50066;SDS011;35952;52.524;13.340;2023-07-13T05:19:17;5.50;;;5.00;;
50066;SDS011;35952;52.524;13.340;2023-07-13T05:21:42;7.87;;;5.43;;
50066;SDS011;35952;52.524;13.340;2023-07-13T05:24:07;8.60;;;5.67;;
50066;SDS011;35952;52.524;13.340;2023-07-13T05:26:33;7.07;;;5.10;;
50066;SDS011;35952;52.524;13.340;2023-07-13T05:28:58;6.43;;;5.27;;
50066;SDS011;35952;52.524;13.340;2023-07-13T05:31:24;5.73;;;5.23;;
50066;SDS011;35952;52.524;13.340;2023-07-13T05:33:50;6.27;;;5.67;;
50066;SDS011;35952;52.524;13.340;2023-07-13T05:36:15;6.37;;;5.77;;
50066;SDS011;35952;52.524;13.340;2023-07-13T05:38:41;8.20;;;5.53;;
50066;SDS011;35952;52.524;13.340;2023-07-13T05:41:06;6.00;;;5.20;;
50066;SDS011;35952;52.524;13.340;2023-07-13T05:43:32;5.60;;;4.80;;
50066;SDS011;35952;52.524;13.340;2023-07-13T05:45:58;6.33;;;5.67;;
50066;SDS011;35952;52.524;13.340;2023-07-13T05:48:24;7.37;;;5.60;;
50066;SDS011;35952;52.524;13.340;2023-07-13T05:50:49;7.77;;;5.37;;
50066;SDS011;35952;52.524;13.340;2023-07-13T05:53:15;7.37;;;5.43;;
50066;SDS011;35952;52.524;13.340;2023-07-13T05:55:44;5.57;;;5.17;;
50066;SDS011;35952;52.524;13.340;2023-07-13T05:58:16;8.50;;;5.20;;
50066;SDS011;35952;52.524;13.340;2023-07-13T06:00:42;5.07;;;4.57;;
50066;SDS011;35952;52.524;13.340;2023-07-13T06:03:08;8.10;;;5.13;;
50066;SDS011;35952;52.524;13.340;2023-07-13T06:05:34;4.77;;;4.37;;
50066;SDS011;35952;52.524;13.340;2023-07-13T06:08:01;6.37;;;4.80;;
50066;SDS011;35952;52.524;13.340;2023-07-13T06:10:27;7.43;;;4.77;;
50066;SDS011;35952;52.524;13.340;2023-07-13T06:12:52;9.70;;;4.83;;
50066;SDS011;35952;52.524;13.340;2023-07-13T06:15:18;7.87;;;4.67;;
50066;SDS011;35952;52.524;13.340;2023-07-13T06:17:44;8.17;;;4.03;;
50066;SDS011;35952;52.524;13.340;2023-07-13T06:20:10;7.30;;;3.90;;
50066;SDS011;35952;52.524;13.340;2023-07-13T06:22:35;6.47;;;3.67;;
50066;SDS011;35952;52.524;13.340;2023-07-13T06:25:01;6.73;;;6.13;;
50066;SDS011;35952;52.524;13.340;2023-07-13T06:27:26;6.90;;;4.20;;
50066;SDS011;35952;52.524;13.340;2023-07-13T06:29:52;4.77;;;3.77;;
50066;SDS011;35952;52.524;13.340;2023-07-13T06:32:18;7.50;;;4.07;;
50066;SDS011;35952;52.524;13.340;2023-07-13T06:34:43;6.80;;;4.00;;
50066;SDS011;35952;52.524;13.340;2023-07-13T06:37:09;5.97;;;3.80;;
50066;SDS011;35952;52.524;13.340;2023-07-13T06:39:35;4.43;;;3.47;;
50066;SDS011;35952;52.524;13.340;2023-07-13T06:42:01;4.50;;;3.30;;
50066;SDS011;35952;52.524;13.340;2023-07-13T06:44:26;3.57;;;3.30;;
50066;SDS011;35952;52.524;13.340;2023-07-13T06:46:52;5.33;;;3.10;;
50066;SDS011;35952;52.524;13.340;2023-07-13T06:49:18;8.40;;;4.07;;
50066;SDS011;35952;52.524;13.340;2023-07-13T06:51:43;5.27;;;3.20;;
50066;SDS011;35952;52.524;13.340;2023-07-13T06:54:10;6.83;;;3.90;;
50066;SDS011;35952;52.524;13.340;2023-07-13T06:56:35;11.10;;;4.20;;
50066;SDS011;35952;52.524;13.340;2023-07-13T06:59:00;3.90;;;3.23;;
50066;SDS011;35952;52.524;13.340;2023-07-13T07:01:26;2.73;;;2.53;;
50066;SDS011;35952;52.524;13.340;2023-07-13T07:03:51;4.60;;;2.70;;
50066;SDS011;35952;52.524;13.340;2023-07-13T07:06:18;4.17;;;2.70;;
50066;SDS011;35952;52.524;13.340;2023-07-13T07:08:45;3.97;;;2.73;;
50066;SDS011;35952;52.524;13.340;2023-07-13T07:11:12;3.10;;;2.47;;
50066;SDS011;35952;52.524;13.340;2023-07-13T07:13:38;5.40;;;3.30;;
50066;SDS011;35952;52.524;13.340;2023-07-13T07:16:04;5.23;;;2.90;;
50066;SDS011;35952;52.524;13.340;2023-07-13T07:18:29;5.00;;;3.30;;
50066;SDS011;35952;52.524;13.340;2023-07-13T07:20:55;5.60;;;3.17;;
50066;SDS011;35952;52.524;13.340;2023-07-13T07:23:20;3.87;;;3.00;;
50066;SDS011;35952;52.524;13.340;2023-07-13T07:25:46;3.10;;;2.90;;
50066;SDS011;35952;52.524;13.340;2023-07-13T07:28:14;4.40;;;3.50;;
50066;SDS011;35952;52.524;13.340;2023-07-13T07:30:42;3.17;;;2.87;;
50066;SDS011;35952;52.524;13.340;2023-07-13T07:33:09;4.70;;;2.50;;
50066;SDS011;35952;52.524;13.340;2023-07-13T07:35:34;6.80;;;2.80;;
50066;SDS011;35952;52.524;13.340;2023-07-13T07:38:00;4.13;;;2.87;;
50066;SDS011;35952;52.524;13.340;2023-07-13T07:40:25;4.17;;;2.40;;
50066;SDS011;35952;52.524;13.340;2023-07-13T07:42:51;5.10;;;2.83;;
50066;SDS011;35952;52.524;13.340;2023-07-13T07:45:18;2.60;;;2.40;;
50066;SDS011;35952;52.524;13.340;2023-07-13T07:47:44;7.93;;;3.33;;
50066;SDS011;35952;52.524;13.340;2023-07-13T07:50:09;3.60;;;2.70;;
50066;SDS011;35952;52.524;13.340;2023-07-13T07:52:35;2.70;;;2.50;;
50066;SDS011;35952;52.524;13.340;2023-07-13T07:55:01;4.37;;;3.80;;
50066;SDS011;35952;52.524;13.340;2023-07-13T07:57:26;5.50;;;3.30;;
50066;SDS011;35952;52.524;13.340;2023-07-13T07:59:52;6.47;;;3.07;;
50066;SDS011;35952;52.524;13.340;2023-07-13T08:02:17;3.57;;;2.80;;
50066;SDS011;35952;52.524;13.340;2023-07-13T08:04:43;6.20;;;3.57;;
50066;SDS011;35952;52.524;13.340;2023-07-13T08:07:08;5.30;;;3.00;;
50066;SDS011;35952;52.524;13.340;2023-07-13T08:09:34;3.40;;;3.10;;
50066;SDS011;35952;52.524;13.340;2023-07-13T08:11:59;5.40;;;3.10;;
50066;SDS011;35952;52.524;13.340;2023-07-13T08:14:25;2.60;;;2.40;;
50066;SDS011;35952;52.524;13.340;2023-07-13T08:16:51;4.37;;;3.00;;
50066;SDS011;35952;52.524;13.340;2023-07-13T08:19:16;10.90;;;3.80;;
50066;SDS011;35952;52.524;13.340;2023-07-13T08:21:42;9.80;;;3.30;;
50066;SDS011;35952;52.524;13.340;2023-07-13T08:24:08;3.77;;;3.10;;
50066;SDS011;35952;52.524;13.340;2023-07-13T08:26:34;4.30;;;3.47;;
50066;SDS011;35952;52.524;13.340;2023-07-13T08:28:59;3.90;;;3.60;;
50066;SDS011;35952;52.524;13.340;2023-07-13T08:31:25;6.00;;;3.70;;
50066;SDS011;35952;52.524;13.340;2023-07-13T08:33:50;2.80;;;2.60;;
50066;SDS011;35952;52.524;13.340;2023-07-13T08:36:16;3.23;;;2.50;;
50066;SDS011;35952;52.524;13.340;2023-07-13T08:38:41;4.50;;;2.80;;
50066;SDS011;35952;52.524;13.340;2023-07-13T08:41:12;8.70;;;2.40;;
50066;SDS011;35952;52.524;13.340;2023-07-13T08:43:40;9.13;;;2.20;;
50066;SDS011;35952;52.524;13.340;2023-07-13T08:46:13;2.93;;;2.73;;
50066;SDS011;35952;52.524;13.340;2023-07-13T08:48:49;5.40;;;2.50;;
50066;SDS011;35952;52.524;13.340;2023-07-13T08:51:28;5.10;;;2.47;;
50066;SDS011;35952;52.524;13.340;2023-07-13T08:54:28;3.03;;;2.50;;
50066;SDS011;35952;52.524;13.340;2023-07-13T08:56:58;2.63;;;2.37;;
50066;SDS011;35952;52.524;13.340;2023-07-13T08:59:27;3.33;;;2.63;;
50066;SDS011;35952;52.524;13.340;2023-07-13T09:04:22;2.70;;;2.50;;
50066;SDS011;35952;52.524;13.340;2023-07-13T09:07:07;4.00;;;2.17;;
50066;SDS011;35952;52.524;13.340;2023-07-13T09:14:51;2.40;;;2.20;;
50066;SDS011;35952;52.524;13.340;2023-07-13T09:17:25;2.30;;;2.10;;
50066;SDS011;35952;52.524;13.340;2023-07-13T09:19:56;3.80;;;2.53;;
50066;SDS011;35952;52.524;13.340;2023-07-13T09:22:48;4.80;;;2.47;;
50066;SDS011;35952;52.524;13.340;2023-07-13T09:28:11;2.37;;;2.13;;
50066;SDS011;35952;52.524;13.340;2023-07-13T09:30:46;5.00;;;2.77;;
50066;SDS011;35952;52.524;13.340;2023-07-13T09:33:18;2.90;;;2.33;;
50066;SDS011;35952;52.524;13.340;2023-07-13T09:35:44;3.53;;;2.63;;
50066;SDS011;35952;52.524;13.340;2023-07-13T09:38:16;4.03;;;2.90;;
50066;SDS011;35952;52.524;13.340;2023-07-13T09:40:56;5.17;;;3.23;;
50066;SDS011;35952;52.524;13.340;2023-07-13T09:44:00;4.87;;;3.27;;
50066;SDS011;35952;52.524;13.340;2023-07-13T09:46:52;6.83;;;3.90;;
50066;SDS011;35952;52.524;13.340;2023-07-13T09:49:22;3.60;;;3.30;;
50066;SDS011;35952;52.524;13.340;2023-07-13T09:51:59;4.47;;;3.63;;
50066;SDS011;35952;52.524;13.340;2023-07-13T09:54:27;3.77;;;3.47;;
50066;SDS011;35952;52.524;13.340;2023-07-13T09:56:56;3.60;;;3.30;;
50066;SDS011;35952;52.524;13.340;2023-07-13T09:59:30;4.87;;;4.47;;
50066;SDS011;35952;52.524;13.340;2023-07-13T10:05:01;5.37;;;4.23;;
50066;SDS011;35952;52.524;13.340;2023-07-13T10:07:28;7.33;;;4.53;;
50066;SDS011;35952;52.524;13.340;2023-07-13T10:09:55;4.40;;;4.00;;
50066;SDS011;35952;52.524;13.340;2023-07-13T10:12:22;4.63;;;4.20;;
50066;SDS011;35952;52.524;13.340;2023-07-13T10:14:50;9.33;;;4.13;;
50066;SDS011;35952;52.524;13.340;2023-07-13T10:17:19;6.27;;;3.83;;
50066;SDS011;35952;52.524;13.340;2023-07-13T10:19:55;4.33;;;4.03;;
50066;SDS011;35952;52.524;13.340;2023-07-13T10:22:33;4.27;;;3.87;;
50066;SDS011;35952;52.524;13.340;2023-07-13T10:25:23;4.37;;;3.50;;
50066;SDS011;35952;52.524;13.340;2023-07-13T10:27:51;4.87;;;4.37;;
50066;SDS011;35952;52.524;13.340;2023-07-13T10:30:22;5.30;;;3.77;;
50066;SDS011;35952;52.524;13.340;2023-07-13T10:32:53;6.37;;;4.37;;
50066;SDS011;35952;52.524;13.340;2023-07-13T10:35:19;3.83;;;3.53;;
50066;SDS011;35952;52.524;13.340;2023-07-13T10:40:42;6.73;;;3.80;;
50066;SDS011;35952;52.524;13.340;2023-07-13T10:43:18;4.10;;;3.60;;
50066;SDS011;35952;52.524;13.340;2023-07-13T10:45:48;4.33;;;4.03;;
50066;SDS011;35952;52.524;13.340;2023-07-13T10:48:15;8.40;;;3.67;;
50066;SDS011;35952;52.524;13.340;2023-07-13T10:50:42;4.80;;;3.97;;
50066;SDS011;35952;52.524;13.340;2023-07-13T10:58:19;5.70;;;3.13;;
50066;SDS011;35952;52.524;13.340;2023-07-13T11:03:28;4.20;;;3.73;;
50066;SDS011;35952;52.524;13.340;2023-07-13T11:06:07;3.70;;;3.40;;
50066;SDS011;35952;52.524;13.340;2023-07-13T11:18:47;4.47;;;4.17;;
50066;SDS011;35952;52.524;13.340;2023-07-13T11:21:18;4.10;;;3.70;;
50066;SDS011;35952;52.524;13.340;2023-07-13T11:23:51;3.83;;;3.53;;
50066;SDS011;35952;52.524;13.340;2023-07-13T11:26:37;9.20;;;4.30;;
50066;SDS011;35952;52.524;13.340;2023-07-13T11:29:08;9.67;;;4.10;;
50066;SDS011;35952;52.524;13.340;2023-07-13T11:31:40;5.03;;;3.30;;
50066;SDS011;35952;52.524;13.340;2023-07-13T11:34:10;3.90;;;3.10;;
50066;SDS011;35952;52.524;13.340;2023-07-13T11:36:39;5.57;;;4.00;;
50066;SDS011;35952;52.524;13.340;2023-07-13T11:41:43;7.43;;;3.23;;
50066;SDS011;35952;52.524;13.340;2023-07-13T11:44:16;6.53;;;3.40;;
50066;SDS011;35952;52.524;13.340;2023-07-13T11:46:52;4.47;;;3.40;;
50066;SDS011;35952;52.524;13.340;2023-07-13T11:49:20;3.87;;;3.47;;
50066;SDS011;35952;52.524;13.340;2023-07-13T11:51:49;5.00;;;3.20;;
50066;SDS011;35952;52.524;13.340;2023-07-13T11:54:22;5.30;;;3.77;;
50066;SDS011;35952;52.524;13.340;2023-07-13T11:56:51;4.20;;;3.80;;
50066;SDS011;35952;52.524;13.340;2023-07-13T11:59:18;3.60;;;3.23;;
50066;SDS011;35952;52.524;13.340;2023-07-13T12:01:47;3.13;;;2.93;;
50066;SDS011;35952;52.524;13.340;2023-07-13T12:04:22;3.37;;;3.07;;
50066;SDS011;35952;52.524;13.340;2023-07-13T12:06:57;4.13;;;3.30;;
50066;SDS011;35952;52.524;13.340;2023-07-13T12:09:28;5.00;;;3.27;;
50066;SDS011;35952;52.524;13.340;2023-07-13T12:11:56;3.27;;;2.97;;
50066;SDS011;35952;52.524;13.340;2023-07-13T12:14:23;3.23;;;3.00;;
50066;SDS011;35952;52.524;13.340;2023-07-13T12:16:50;3.50;;;3.30;;
50066;SDS011;35952;52.524;13.340;2023-07-13T12:19:17;3.87;;;3.30;;
50066;SDS011;35952;52.524;13.340;2023-07-13T12:21:45;3.80;;;3.50;;
50066;SDS011;35952;52.524;13.340;2023-07-13T12:24:15;5.93;;;2.93;;
50066;SDS011;35952;52.524;13.340;2023-07-13T12:26:42;4.47;;;3.37;;
50066;SDS011;35952;52.524;13.340;2023-07-13T12:29:11;5.53;;;3.33;;
50066;SDS011;35952;52.524;13.340;2023-07-13T12:31:42;5.30;;;3.40;;
50066;SDS011;35952;52.524;13.340;2023-07-13T12:34:13;7.20;;;3.30;;
50066;SDS011;35952;52.524;13.340;2023-07-13T12:36:51;4.83;;;2.87;;
50066;SDS011;35952;52.524;13.340;2023-07-13T12:39:43;4.13;;;3.10;;
50066;SDS011;35952;52.524;13.340;2023-07-13T12:44:52;7.07;;;2.93;;
50066;SDS011;35952;52.524;13.340;2023-07-13T12:47:21;6.23;;;2.90;;
50066;SDS011;35952;52.524;13.340;2023-07-13T12:49:48;3.17;;;2.97;;
50066;SDS011;35952;52.524;13.340;2023-07-13T12:52:23;3.57;;;2.57;;
50066;SDS011;35952;52.524;13.340;2023-07-13T12:55:08;2.60;;;2.40;;
50066;SDS011;35952;52.524;13.340;2023-07-13T12:57:41;3.07;;;2.40;;
50066;SDS011;35952;52.524;13.340;2023-07-13T13:00:31;2.83;;;2.53;;
50066;SDS011;35952;52.524;13.340;2023-07-13T13:03:02;4.07;;;2.70;;
50066;SDS011;35952;52.524;13.340;2023-07-13T13:05:31;4.83;;;3.33;;
50066;SDS011;35952;52.524;13.340;2023-07-13T13:07:58;4.33;;;3.13;;
50066;SDS011;35952;52.524;13.340;2023-07-13T13:10:23;3.33;;;2.57;;
50066;SDS011;35952;52.524;13.340;2023-07-13T13:12:49;8.13;;;3.10;;
50066;SDS011;35952;52.524;13.340;2023-07-13T13:15:17;4.43;;;3.13;;
50066;SDS011;35952;52.524;13.340;2023-07-13T13:17:42;5.83;;;2.70;;
50066;SDS011;35952;52.524;13.340;2023-07-13T13:20:18;4.80;;;3.07;;
50066;SDS011;35952;52.524;13.340;2023-07-13T13:22:46;4.47;;;3.00;;
50066;SDS011;35952;52.524;13.340;2023-07-13T13:25:12;2.87;;;2.33;;
50066;SDS011;35952;52.524;13.340;2023-07-13T13:27:42;5.37;;;2.53;;
50066;SDS011;35952;52.524;13.340;2023-07-13T13:30:10;6.13;;;2.40;;
50066;SDS011;35952;52.524;13.340;2023-07-13T13:32:41;4.47;;;2.40;;
50066;SDS011;35952;52.524;13.340;2023-07-13T13:35:18;7.07;;;3.20;;
50066;SDS011;35952;52.524;13.340;2023-07-13T13:37:45;3.57;;;2.87;;
50066;SDS011;35952;52.524;13.340;2023-07-13T13:40:22;7.10;;;3.00;;
50066;SDS011;35952;52.524;13.340;2023-07-13T13:42:51;3.03;;;2.33;;
50066;SDS011;35952;52.524;13.340;2023-07-13T13:45:19;4.90;;;2.90;;
50066;SDS011;35952;52.524;13.340;2023-07-13T13:47:46;3.93;;;2.70;;
50066;SDS011;35952;52.524;13.340;2023-07-13T13:50:13;13.10;;;3.40;;
50066;SDS011;35952;52.524;13.340;2023-07-13T13:52:45;3.63;;;2.60;;
50066;SDS011;35952;52.524;13.340;2023-07-13T13:55:11;6.60;;;2.40;;
50066;SDS011;35952;52.524;13.340;2023-07-13T13:57:38;5.70;;;2.23;;
50066;SDS011;35952;52.524;13.340;2023-07-13T14:00:04;4.13;;;2.50;;
50066;SDS011;35952;52.524;13.340;2023-07-13T14:02:30;3.33;;;2.47;;
50066;SDS011;35952;52.524;13.340;2023-07-13T14:04:58;5.87;;;2.30;;
50066;SDS011;35952;52.524;13.340;2023-07-13T14:07:25;3.23;;;2.30;;
50066;SDS011;35952;52.524;13.340;2023-07-13T14:09:52;7.33;;;2.63;;
50066;SDS011;35952;52.524;13.340;2023-07-13T14:12:21;3.23;;;2.30;;
50066;SDS011;35952;52.524;13.340;2023-07-13T14:14:46;5.30;;;2.10;;
50066;SDS011;35952;52.524;13.340;2023-07-13T14:17:30;3.23;;;2.13;;
50066;SDS011;35952;52.524;13.340;2023-07-13T14:19:56;5.83;;;2.47;;
50066;SDS011;35952;52.524;13.340;2023-07-13T14:22:22;5.27;;;3.00;;
50066;SDS011;35952;52.524;13.340;2023-07-13T14:24:49;6.90;;;2.60;;
50066;SDS011;35952;52.524;13.340;2023-07-13T14:27:16;4.03;;;2.60;;
50066;SDS011;35952;52.524;13.340;2023-07-13T14:29:43;4.00;;;2.47;;
50066;SDS011;35952;52.524;13.340;2023-07-13T14:32:11;5.67;;;2.30;;
50066;SDS011;35952;52.524;13.340;2023-07-13T14:34:38;3.30;;;2.33;;
50066;SDS011;35952;52.524;13.340;2023-07-13T14:37:04;10.17;;;3.20;;
50066;SDS011;35952;52.524;13.340;2023-07-13T14:39:30;4.00;;;2.80;;
50066;SDS011;35952;52.524;13.340;2023-07-13T14:41:56;5.83;;;2.73;;
50066;SDS011;35952;52.524;13.340;2023-07-13T14:44:26;7.10;;;2.70;;
50066;SDS011;35952;52.524;13.340;2023-07-13T14:46:54;3.17;;;2.57;;
50066;SDS011;35952;52.524;13.340;2023-07-13T14:49:23;3.93;;;2.73;;
50066;SDS011;35952;52.524;13.340;2023-07-13T14:52:11;2.30;;;2.10;;
50066;SDS011;35952;52.524;13.340;2023-07-13T14:54:39;4.90;;;2.20;;
50066;SDS011;35952;52.524;13.340;2023-07-13T14:57:12;2.20;;;2.03;;
50066;SDS011;35952;52.524;13.340;2023-07-13T14:59:39;4.27;;;2.20;;
50066;SDS011;35952;52.524;13.340;2023-07-13T15:02:27;2.20;;;2.00;;
50066;SDS011;35952;52.524;13.340;2023-07-13T15:04:52;6.90;;;1.77;;
50066;SDS011;35952;52.524;13.340;2023-07-13T15:07:21;3.40;;;2.20;;
50066;SDS011;35952;52.524;13.340;2023-07-13T15:09:48;4.60;;;2.87;;
50066;SDS011;35952;52.524;13.340;2023-07-13T15:12:14;2.03;;;1.83;;
50066;SDS011;35952;52.524;13.340;2023-07-13T15:14:39;4.93;;;1.97;;
50066;SDS011;35952;52.524;13.340;2023-07-13T15:17:05;3.47;;;1.97;;
50066;SDS011;35952;52.524;13.340;2023-07-13T15:19:42;3.77;;;2.07;;
50066;SDS011;35952;52.524;13.340;2023-07-13T15:22:08;5.13;;;2.00;;